createdAt,value
2019-05-06T00:03:45.989Z,6.36
2019-05-06T00:09:53.854Z,6.26
2019-05-06T00:15:59.680Z,6.25
2019-05-06T00:22:06.536Z,6.21
2019-05-06T00:28:30.148Z,5.98
2019-05-06T00:34:35.977Z,5.84
2019-05-06T00:40:43.702Z,5.72
2019-05-06T00:46:49.656Z,5.62
2019-05-06T00:52:56.657Z,5.45
2019-05-06T00:59:03.745Z,5.45
2019-05-06T01:05:09.943Z,5.44
2019-05-06T01:11:16.229Z,5.31
2019-05-06T01:17:23.862Z,5.26
2019-05-06T01:23:34.237Z,5.42
2019-05-06T01:29:40.213Z,5.26
2019-05-06T01:35:46.009Z,4.97
2019-05-06T01:41:57.704Z,4.94
2019-05-06T01:48:04.043Z,4.91
2019-05-06T01:54:10.196Z,4.88
2019-05-06T02:00:17.346Z,4.82
2019-05-06T02:06:24.924Z,4.65
2019-05-06T02:12:30.689Z,4.56
2019-05-06T02:18:36.750Z,4.48
2019-05-06T02:24:49.366Z,4.42
2019-05-06T02:31:14.815Z,4.30
2019-05-06T02:37:26.878Z,4.22
2019-05-06T02:43:36.281Z,4.10
2019-05-06T02:49:46.988Z,3.99
2019-05-06T02:55:53.220Z,3.94
2019-05-06T03:01:59.067Z,3.88
2019-05-06T03:08:05.030Z,3.94
2019-05-06T03:14:13.808Z,3.98
2019-05-06T03:20:59.298Z,3.91
2019-05-06T03:27:05.140Z,3.82
2019-05-06T03:39:18.376Z,4.00
2019-05-06T03:45:34.707Z,3.99
2019-05-06T03:51:42.786Z,4.06
2019-05-06T03:57:53.678Z,4.10
2019-05-06T04:03:57.852Z,4.00
2019-05-06T04:10:04.248Z,4.07
2019-05-06T04:16:23.086Z,4.07
2019-05-06T04:22:57.699Z,4.15
2019-05-06T04:29:04.125Z,4.26
2019-05-06T04:35:13.238Z,4.47
2019-05-06T04:41:17.878Z,4.49
2019-05-06T04:47:24.276Z,4.49
2019-05-06T04:53:33.772Z,4.54
2019-05-06T04:59:38.965Z,4.65
2019-05-06T05:05:45.226Z,4.76
2019-05-06T05:12:02.723Z,4.88
2019-05-06T05:18:13.026Z,5.06
2019-05-06T05:24:18.871Z,5.17
2019-05-06T05:30:24.638Z,5.34
2019-05-06T05:36:32.612Z,5.76
2019-05-06T05:42:57.590Z,6.06
2019-05-06T05:49:37.559Z,6.27
2019-05-06T05:55:43.671Z,6.49
2019-05-06T06:01:49.725Z,6.56
2019-05-06T06:07:57.451Z,6.69
2019-05-06T06:14:07.346Z,6.81
2019-05-06T06:20:32.743Z,7.10
2019-05-06T06:26:38.836Z,7.31
2019-05-06T06:32:45.219Z,7.32
2019-05-06T06:39:09.941Z,7.33
2019-05-06T06:45:15.762Z,7.39
2019-05-06T06:51:23.457Z,7.53
2019-05-06T06:57:46.579Z,7.76
2019-05-06T07:04:02.629Z,8.04
2019-05-06T07:10:12.102Z,8.29
2019-05-06T07:16:20.714Z,8.47
2019-05-06T07:22:32.480Z,8.63
2019-05-06T07:28:38.608Z,8.80
2019-05-06T07:34:44.628Z,9.01
2019-05-06T07:40:54.331Z,8.91
2019-05-06T07:47:18.943Z,8.69
2019-05-06T07:53:24.834Z,8.80
2019-05-06T07:59:33.267Z,9.02
2019-05-06T08:05:51.567Z,9.28
2019-05-06T08:11:46.172Z,9.46
2019-05-06T08:17:52.565Z,9.55
2019-05-06T08:23:58.429Z,9.72
2019-05-06T08:30:04.541Z,10.09
2019-05-06T08:36:14.912Z,10.49
2019-05-06T08:42:22.437Z,10.62
2019-05-06T08:48:29.052Z,10.71
2019-05-06T08:54:43.336Z,10.69
2019-05-06T09:01:03.328Z,10.88
2019-05-06T09:07:09.071Z,11.13
2019-05-06T09:13:15.318Z,11.06
2019-05-06T09:19:23.121Z,11.04
2019-05-06T09:25:28.701Z,11.24
2019-05-06T09:31:42.688Z,11.44
2019-05-06T09:37:48.364Z,11.78
2019-05-06T09:43:54.134Z,11.80
2019-05-06T09:50:02.650Z,11.98
2019-05-06T09:56:33.492Z,12.20
2019-05-06T10:02:39.451Z,12.34
2019-05-06T10:08:45.267Z,12.17
2019-05-06T10:14:53.167Z,11.93
2019-05-06T10:20:58.727Z,11.68
2019-05-06T10:27:04.440Z,11.49
2019-05-06T10:33:14.812Z,11.45
2019-05-06T10:39:24.022Z,11.46
2019-05-06T10:45:32.603Z,11.60
2019-05-06T10:51:47.763Z,11.80
2019-05-06T10:57:53.506Z,12.10
2019-05-06T11:03:59.353Z,12.19
2019-05-06T11:10:05.468Z,11.61
2019-05-06T11:16:12.964Z,11.36
2019-05-06T11:22:21.393Z,11.40
2019-05-06T11:28:44.046Z,11.79
2019-05-06T11:34:55.973Z,12.24
2019-05-06T11:41:01.734Z,12.28
2019-05-06T11:47:07.830Z,12.45
2019-05-06T11:53:13.742Z,12.64
2019-05-06T11:59:19.569Z,12.70
2019-05-06T12:05:29.105Z,12.97
2019-05-06T12:11:35.120Z,13.17
2019-05-06T12:17:42.204Z,13.33
2019-05-06T12:23:48.159Z,13.29
2019-05-06T12:29:54.131Z,13.30
2019-05-06T12:36:02.540Z,13.52
2019-05-06T12:42:19.408Z,13.72
2019-05-06T12:48:27.935Z,14.02
2019-05-06T12:54:33.791Z,13.87
2019-05-06T13:00:39.707Z,13.64
2019-05-06T13:06:46.348Z,13.77
2019-05-06T13:12:57.656Z,13.96
2019-05-06T13:19:03.827Z,13.96
2019-05-06T13:25:13.357Z,14.49
2019-05-06T13:31:21.674Z,14.48
2019-05-06T13:37:25.416Z,14.33
2019-05-06T13:43:39.021Z,14.59
2019-05-06T13:49:53.108Z,14.35
2019-05-06T13:56:01.907Z,14.05
2019-05-06T14:02:16.404Z,13.78
2019-05-06T14:08:22.317Z,13.72
2019-05-06T14:14:28.159Z,13.56
2019-05-06T14:20:34.100Z,13.48
2019-05-06T14:26:45.709Z,13.54
2019-05-06T14:32:52.749Z,13.53
2019-05-06T14:38:58.767Z,13.80
2019-05-06T14:45:05.323Z,13.89
2019-05-06T14:51:13.051Z,13.82
2019-05-06T14:57:19.899Z,13.56
2019-05-06T15:03:25.707Z,13.44
2019-05-06T15:09:33.010Z,13.30
2019-05-06T15:15:38.954Z,13.08
2019-05-06T15:21:44.744Z,12.82
2019-05-06T15:27:52.955Z,12.25
2019-05-06T15:34:02.439Z,11.94
2019-05-06T15:40:09.350Z,11.71
2019-05-06T15:46:15.215Z,11.67
2019-05-06T15:52:23.443Z,11.45
2019-05-06T15:58:29.085Z,11.29
2019-05-06T16:04:34.965Z,11.14
2019-05-06T16:10:51.887Z,11.24
2019-05-06T16:16:49.090Z,11.28
2019-05-06T16:23:03.450Z,11.15
2019-05-06T16:29:09.347Z,11.12
2019-05-06T16:35:15.390Z,11.18
2019-05-06T16:41:22.477Z,11.18
2019-05-06T16:47:38.587Z,11.26
2019-05-06T16:53:45.287Z,11.22
2019-05-06T16:59:52.213Z,11.22
2019-05-06T17:06:26.371Z,11.19
2019-05-06T17:12:32.417Z,11.19
2019-05-06T17:18:38.259Z,11.11
2019-05-06T17:24:44.130Z,11.09
2019-05-06T17:31:06.113Z,11.12
2019-05-06T17:37:29.450Z,11.22
2019-05-06T17:43:40.553Z,11.01
2019-05-06T17:49:42.930Z,10.95
2019-05-06T17:55:49.074Z,10.89
2019-05-06T18:01:57.179Z,10.74
2019-05-06T18:08:03.719Z,10.56
2019-05-06T18:14:12.317Z,10.51
2019-05-06T18:20:17.964Z,10.50
2019-05-06T18:26:24.176Z,10.40
2019-05-06T18:32:29.988Z,10.35
2019-05-06T18:38:35.865Z,10.31
2019-05-06T18:44:42.317Z,10.23
2019-05-06T18:50:48.202Z,10.15
2019-05-06T18:56:54.180Z,10.10
2019-05-06T19:03:02.508Z,10.04
2019-05-06T19:09:22.827Z,9.92
2019-05-06T19:15:32.413Z,9.81
2019-05-06T19:21:38.340Z,9.71
2019-05-06T19:27:44.236Z,9.57
2019-05-06T19:33:52.454Z,9.46
2019-05-06T19:39:59.735Z,9.38
2019-05-06T19:46:05.641Z,9.39
2019-05-06T19:52:11.666Z,9.39
2019-05-06T19:58:17.616Z,9.39
2019-05-06T20:04:24.204Z,9.48
2019-05-06T20:10:48.310Z,9.58
2019-05-06T20:16:54.263Z,9.67
2019-05-06T20:23:02.536Z,9.68
2019-05-06T20:29:07.938Z,9.71
2019-05-06T20:35:14.738Z,9.69
2019-05-06T20:41:22.147Z,9.74
2019-05-06T20:47:28.166Z,9.70
2019-05-06T20:53:34.056Z,9.64
2019-05-06T20:59:41.971Z,9.67
2019-05-06T21:05:48.586Z,9.70
2019-05-06T21:11:55.263Z,9.77
2019-05-06T21:18:04.105Z,9.80
2019-05-06T21:24:09.590Z,9.81
2019-05-06T21:30:16.395Z,9.72
2019-05-06T21:36:23.139Z,9.67
2019-05-06T21:42:29.684Z,9.65
2019-05-06T21:48:35.781Z,9.68
2019-05-06T21:54:43.373Z,9.65
2019-05-06T22:07:12.015Z,9.57
2019-05-06T22:13:17.987Z,9.52
2019-05-06T22:19:24.179Z,9.54
2019-05-06T22:25:32.543Z,9.54
2019-05-06T22:31:38.120Z,9.50
2019-05-06T22:37:45.075Z,9.47
2019-05-06T22:43:53.198Z,9.45
2019-05-06T22:49:59.557Z,9.41
2019-05-06T22:56:09.206Z,9.32
2019-05-06T23:02:32.623Z,9.26
2019-05-06T23:08:38.981Z,9.24
2019-05-06T23:14:45.116Z,9.22
2019-05-06T23:20:52.735Z,9.19
2019-05-06T23:26:58.915Z,9.01
2019-05-06T23:33:05.431Z,9.02
2019-05-06T23:40:06.890Z,8.99
2019-05-06T23:47:06.915Z,9.03
2019-05-06T23:54:06.667Z,9.03
